Kingfisher, Oklahoma
Current Conditions -  °F | °C
As of 2:15 PM on Thursday 29 Jan 2015 (Local Time) from KRCE Reporting Station
Clear Clear  
Wind Chill: 50°   Ceiling: Unl
Heat Index: 50°   Visibility: 10mi
Dew Point: 28°   Wind: 26mph
Humidity: 43%   Direction: 350°N
Pressure: 30.42"   Gusts: 32mph
Location:  35.86°N, 97.93°W
Report Text: KRCE 292015Z AUTO 35023G28KT 10SM CLR 10/M02 A3042 RMK AO2
Loading
Personal Weather Stations






























Interactive Weather Map New forecast layout! Learn more

10-Day Weather Forecast

Advertisements
Track Severe Weather on mobile